Time;durP1;ratioP1;P1;durP2;ratioP2;P2;SDS_P1;SDS_P2;PMS_P1;PMS_P2;Temp;Humidity;BMP_temperature;BMP_pressure;BME280_temperature;BME280_humidity;BME280_pressure;Samples;Min_cycle;Max_cycle;Signal;HPM_P1;HPM_P2
2022/09/07 00:02:21;;;;;;;;;;;;;;;14.78;100.00;101533.72;5065253;28;19932;-79
2022/09/07 00:04:50;;;;;;;;;;;;;;;14.49;100.00;101540.41;5063248;28;19939;-80
2022/09/07 00:07:18;;;;;;;;;;;;;;;14.68;100.00;101545.94;5062397;28;19925;-82
2022/09/07 00:09:45;;;;;;;;;;;;;;;14.61;100.00;101543.25;5062527;28;19931;-77
2022/09/07 00:12:11;;;;;;;;;;;;;;;14.69;100.00;101542.22;5056120;28;20368;-78
2022/09/07 00:14:38;;;;;;;;;;;;;;;14.59;100.00;101542.69;5063907;28;20254;-78
2022/09/07 00:17:10;;;;;;;;;;;;;;;14.53;100.00;101540.84;5065010;28;20297;-78
2022/09/07 00:19:37;;;;;;;;;;;;;;;14.40;100.00;101536.31;5065154;28;19920;-78
2022/09/07 00:22:05;;;;;;;;;;;;;;;14.72;100.00;101539.13;5055987;28;19920;-77
2022/09/07 00:24:32;;;;;;;;;;;;;;;14.54;100.00;101531.78;5059665;28;20267;-81
2022/09/07 00:26:58;;;;;;;;;;;;;;;14.35;100.00;101534.28;5066037;28;19925;-78
2022/09/07 00:29:25;;;;;;;;;;;;;;;14.49;100.00;101545.75;5059330;28;20285;-81
2022/09/07 00:31:52;;;;;;;;;;;;;;;14.42;100.00;101539.63;5061604;28;19921;-78
2022/09/07 00:34:19;;;;;;;;;;;;;;;14.32;100.00;101540.06;5060862;28;19931;-81
2022/09/07 00:36:45;;;;;;;;;;;;;;;14.75;100.00;101544.03;5064102;28;19927;-80
2022/09/07 00:39:16;;;;;;;;;;;;;;;14.85;100.00;101544.38;5070511;28;19925;-77
2022/09/07 00:41:43;;;;;;;;;;;;;;;14.59;100.00;101537.31;5063513;28;19921;-77
2022/09/07 00:44:28;;;;;;;;;;;;;;;14.56;100.00;101538.56;5069035;28;19921;-78
2022/09/07 00:46:55;;;;;;;;;;;;;;;14.75;100.00;101539.50;5073212;28;19935;-79
2022/09/07 00:49:22;;;;;;;;;;;;;;;14.54;100.00;101534.47;5066189;28;19921;-78
2022/09/07 00:51:50;;;;;;;;;;;;;;;14.82;100.00;101537.59;5067780;28;19924;-80
2022/09/07 00:54:21;;;;;;;;;;;;;;;14.65;100.00;101529.28;5067951;28;19932;-81
2022/09/07 00:56:49;;;;;;;;;;;;;;;14.24;100.00;101531.44;5073821;28;20349;-79
2022/09/07 00:59:17;;;;;;;;;;;;;;;14.64;100.00;101526.78;5066975;28;19920;-77
2022/09/07 01:01:44;;;;;;;;;;;;;;;14.62;100.00;101529.69;5068717;28;19921;-79
2022/09/07 01:04:11;;;;;;;;;;;;;;;14.62;100.00;101527.03;5066774;28;19921;-80
2022/09/07 01:06:38;;;;;;;;;;;;;;;14.43;100.00;101535.91;5064136;28;19920;-81
2022/09/07 01:09:06;;;;;;;;;;;;;;;14.65;100.00;101534.63;5064842;28;19931;-81
2022/09/07 01:11:35;;;;;;;;;;;;;;;14.68;100.00;101529.88;5067908;28;19921;-81
2022/09/07 01:14:02;;;;;;;;;;;;;;;14.31;100.00;101532.25;5068957;28;20352;-78
2022/09/07 01:16:43;;;;;;;;;;;;;;;14.55;100.00;101536.91;5068549;28;19924;-81
2022/09/07 01:19:18;;;;;;;;;;;;;;;14.69;100.00;101526.97;5059949;28;19931;-80
2022/09/07 01:21:52;;;;;;;;;;;;;;;14.71;100.00;101530.28;5065722;28;19920;-80
2022/09/07 01:24:34;;;;;;;;;;;;;;;14.34;100.00;101530.00;5071230;28;19935;-81
2022/09/07 01:27:26;;;;;;;;;;;;;;;14.17;100.00;101524.28;5059917;28;20015;-79
2022/09/07 01:29:57;;;;;;;;;;;;;;;14.30;100.00;101527.94;5066607;28;19924;-78
2022/09/07 01:32:29;;;;;;;;;;;;;;;14.25;100.00;101525.06;5066241;28;19943;-78
2022/09/07 01:34:56;;;;;;;;;;;;;;;14.43;100.00;101523.38;5068062;28;19920;-82
2022/09/07 01:37:26;;;;;;;;;;;;;;;14.25;100.00;101525.91;5069675;28;19920;-80
2022/09/07 01:40:06;;;;;;;;;;;;;;;14.31;100.00;101525.06;5056273;28;20389;-80
2022/09/07 01:42:38;;;;;;;;;;;;;;;14.16;100.00;101527.16;5067263;28;20277;-80
2022/09/07 01:45:10;;;;;;;;;;;;;;;14.17;100.00;101526.13;5064195;28;19931;-79
2022/09/07 01:47:39;;;;;;;;;;;;;;;14.32;100.00;101518.69;5068196;28;20343;-80
2022/09/07 01:50:08;;;;;;;;;;;;;;;14.29;100.00;101519.09;5067356;28;19924;-78
2022/09/07 01:52:38;;;;;;;;;;;;;;;13.70;100.00;101515.53;5056287;28;19925;-80
2022/09/07 01:55:07;;;;;;;;;;;;;;;14.07;100.00;101517.72;5065017;28;19920;-78
2022/09/07 01:57:39;;;;;;;;;;;;;;;14.16;100.00;101519.97;5071073;28;19931;-79
2022/09/07 02:02:48;;;;;;;;;;;;;;;13.88;100.00;101522.06;5089137;22;19936;-80
2022/09/07 02:05:17;;;;;;;;;;;;;;;13.97;100.00;101524.31;5040612;28;19921;-81
2022/09/07 02:07:45;;;;;;;;;;;;;;;13.72;100.00;101516.16;5047146;28;19932;-80
2022/09/07 02:10:14;;;;;;;;;;;;;;;13.87;100.00;101515.09;5047800;28;19921;-78
2022/09/07 02:12:47;;;;;;;;;;;;;;;13.83;100.00;101519.19;5039422;28;19944;-81
2022/09/07 02:15:15;;;;;;;;;;;;;;;13.91;100.00;101519.00;5047165;28;19958;-77
2022/09/07 02:17:42;;;;;;;;;;;;;;;13.14;100.00;101513.25;5045214;28;19921;-78
2022/09/07 02:20:11;;;;;;;;;;;;;;;13.43;100.00;101509.38;5043036;28;19927;-78
2022/09/07 02:22:39;;;;;;;;;;;;;;;13.72;100.00;101520.66;5041240;28;19929;-81
2022/09/07 02:25:07;;;;;;;;;;;;;;;13.64;100.00;101518.19;5045907;28;19921;-79
2022/09/07 02:27:36;;;;;;;;;;;;;;;12.98;100.00;101526.94;5044657;28;20360;-77
2022/09/07 02:30:04;;;;;;;;;;;;;;;13.38;100.00;101525.19;5044659;28;19920;-80
2022/09/07 02:32:30;;;;;;;;;;;;;;;13.56;100.00;101521.91;5045634;28;19936;-82
2022/09/07 02:34:57;;;;;;;;;;;;;;;13.63;100.00;101519.25;5042485;28;20280;-79
2022/09/07 02:37:27;;;;;;;;;;;;;;;13.16;100.00;101524.53;5047231;28;19947;-79
2022/09/07 02:39:54;;;;;;;;;;;;;;;12.94;100.00;101531.06;5046874;28;20253;-81
2022/09/07 02:42:20;;;;;;;;;;;;;;;13.11;100.00;101520.84;5045471;28;19921;-78
2022/09/07 02:44:48;;;;;;;;;;;;;;;13.12;100.00;101517.94;5045088;28;19921;-84
2022/09/07 02:47:22;;;;;;;;;;;;;;;12.78;100.00;101521.59;5046062;28;19925;-81
2022/09/07 02:50:04;;;;;;;;;;;;;;;12.79;100.00;101524.03;5044474;28;19920;-79
2022/09/07 02:52:37;;;;;;;;;;;;;;;13.17;100.00;101522.69;5040649;28;19960;-78
2022/09/07 02:55:09;;;;;;;;;;;;;;;13.33;100.00;101529.50;5046945;28;19920;-81
2022/09/07 02:57:42;;;;;;;;;;;;;;;13.27;100.00;101526.63;5042791;28;20307;-81
2022/09/07 03:00:11;;;;;;;;;;;;;;;13.02;100.00;101522.88;5040973;28;19921;-77
2022/09/07 03:02:43;;;;;;;;;;;;;;;12.73;100.00;101524.03;5046445;28;19921;-79
2022/09/07 03:05:12;;;;;;;;;;;;;;;13.22;100.00;101530.88;5044591;28;19925;-79
2022/09/07 03:07:43;;;;;;;;;;;;;;;13.39;100.00;101526.84;5046606;28;19923;-78
2022/09/07 03:10:10;;;;;;;;;;;;;;;13.15;100.00;101524.72;5046358;28;19924;-81
2022/09/07 03:12:40;;;;;;;;;;;;;;;12.94;100.00;101528.38;5049229;28;19920;-81
2022/09/07 03:15:07;;;;;;;;;;;;;;;12.95;100.00;101525.53;5044071;28;19932;-79
2022/09/07 03:17:34;;;;;;;;;;;;;;;12.94;100.00;101525.72;5044757;28;19932;-81
2022/09/07 03:20:03;;;;;;;;;;;;;;;13.23;100.00;101530.69;5039749;28;20341;-78
2022/09/07 03:22:32;;;;;;;;;;;;;;;13.21;100.00;101531.91;5046275;28;19976;-82
2022/09/07 03:24:58;;;;;;;;;;;;;;;13.01;100.00;101534.53;5046021;28;20023;-78
2022/09/07 03:27:25;;;;;;;;;;;;;;;12.83;100.00;101529.81;5042171;28;19932;-80
2022/09/07 03:29:51;;;;;;;;;;;;;;;13.01;100.00;101537.22;5044471;28;19931;-81
2022/09/07 03:32:18;;;;;;;;;;;;;;;13.24;100.00;101529.66;5041683;28;19921;-79
2022/09/07 03:34:47;;;;;;;;;;;;;;;13.26;100.00;101529.50;5046139;28;19920;-81
2022/09/07 03:37:15;;;;;;;;;;;;;;;13.16;100.00;101537.03;5045285;28;19927;-81
2022/09/07 03:39:41;;;;;;;;;;;;;;;13.03;100.00;101536.00;5043456;28;19921;-81
2022/09/07 03:42:08;;;;;;;;;;;;;;;12.67;100.00;101536.28;5044688;28;19921;-79
2022/09/07 03:44:34;;;;;;;;;;;;;;;12.71;100.00;101537.56;5043191;28;19921;-78
2022/09/07 03:47:01;;;;;;;;;;;;;;;13.01;100.00;101539.88;5044592;28;19931;-78
2022/09/07 03:49:28;;;;;;;;;;;;;;;12.94;100.00;101542.53;5045707;28;19921;-80
2022/09/07 03:51:54;;;;;;;;;;;;;;;13.21;100.00;101537.25;5043584;28;19921;-82
2022/09/07 03:54:22;;;;;;;;;;;;;;;13.22;100.00;101537.06;5039927;28;19921;-81
2022/09/07 03:56:49;;;;;;;;;;;;;;;13.07;100.00;101547.91;5042834;28;19921;-80
2022/09/07 03:59:15;;;;;;;;;;;;;;;12.82;100.00;101544.13;5045755;28;19920;-82
2022/09/07 04:01:42;;;;;;;;;;;;;;;12.46;100.00;101549.75;5044984;28;19940;-82
2022/09/07 04:04:09;;;;;;;;;;;;;;;12.99;100.00;101553.44;5043040;28;20357;-80
2022/09/07 04:06:35;;;;;;;;;;;;;;;12.99;100.00;101557.94;5040228;28;20287;-80
2022/09/07 04:09:03;;;;;;;;;;;;;;;13.09;100.00;101555.69;5042107;28;19921;-82
2022/09/07 04:11:31;;;;;;;;;;;;;;;13.09;100.00;101555.69;5045396;28;19924;-81
2022/09/07 04:13:58;;;;;;;;;;;;;;;13.41;100.00;101550.66;5045940;28;19928;-80
2022/09/07 04:16:25;;;;;;;;;;;;;;;13.34;100.00;101555.97;5044963;28;20271;-79
2022/09/07 04:18:53;;;;;;;;;;;;;;;13.15;100.00;101557.56;5045111;28;19932;-82
2022/09/07 04:21:20;;;;;;;;;;;;;;;13.68;100.00;101564.84;5044954;28;19921;-81
2022/09/07 04:23:46;;;;;;;;;;;;;;;13.80;100.00;101565.84;5036585;28;19932;-79
2022/09/07 04:26:14;;;;;;;;;;;;;;;13.79;100.00;101569.53;5044352;28;19924;-82
2022/09/07 04:28:42;;;;;;;;;;;;;;;13.58;100.00;101572.41;5044169;28;20365;-81
2022/09/07 04:31:09;;;;;;;;;;;;;;;13.85;100.00;101571.38;5045168;28;19920;-82
2022/09/07 04:33:36;;;;;;;;;;;;;;;14.09;100.00;101569.09;5045760;28;19997;-82
2022/09/07 04:36:03;;;;;;;;;;;;;;;14.35;100.00;101571.72;5045410;28;19921;-79
2022/09/07 04:38:30;;;;;;;;;;;;;;;14.54;100.00;101571.88;5036519;28;19921;-78
2022/09/07 04:41:00;;;;;;;;;;;;;;;14.72;100.00;101576.53;5043392;28;19921;-84
2022/09/07 04:43:27;;;;;;;;;;;;;;;14.73;100.00;101568.28;5044457;28;19932;-82
2022/09/07 04:45:55;;;;;;;;;;;;;;;14.73;100.00;101570.97;5045013;28;19927;-79
2022/09/07 04:48:24;;;;;;;;;;;;;;;17.34;100.00;101570.97;5043354;28;20352;-84
2022/09/07 04:51:05;;;;;;;;;;;;;;;15.01;100.00;101572.50;5053834;28;19936;-86
2022/09/07 04:53:32;;;;;;;;;;;;;;;14.87;100.00;101571.75;5054056;28;19920;-85
2022/09/07 04:55:59;;;;;;;;;;;;;;;15.06;100.00;101584.19;5034763;28;19921;-86
2022/09/07 04:58:26;;;;;;;;;;;;;;;15.61;100.00;101580.09;5044865;28;20319;-81
2022/09/07 05:00:53;;;;;;;;;;;;;;;15.31;100.00;101578.06;5044973;28;20463;-83
2022/09/07 05:03:21;;;;;;;;;;;;;;;15.24;100.00;101579.97;5043944;28;19920;-78
2022/09/07 05:05:48;;;;;;;;;;;;;;;15.33;100.00;101576.81;5049960;28;19921;-78
2022/09/07 05:08:14;;;;;;;;;;;;;;;15.44;100.00;101577.16;5041873;28;19920;-79
2022/09/07 05:10:50;;;;;;;;;;;;;;;15.54;100.00;101578.31;5043696;28;19924;-77
2022/09/07 05:13:16;;;;;;;;;;;;;;;15.58;100.00;101584.03;5041697;28;19920;-81
2022/09/07 05:15:43;;;;;;;;;;;;;;;15.47;100.00;101574.06;5045300;28;19931;-78
2022/09/07 05:18:09;;;;;;;;;;;;;;;15.56;100.00;101570.06;5044606;28;20027;-80
2022/09/07 05:20:37;;;;;;;;;;;;;;;15.83;100.00;101580.59;5043453;28;19932;-81
2022/09/07 05:23:04;;;;;;;;;;;;;;;15.69;100.00;101571.84;5040398;28;19932;-78
2022/09/07 05:25:31;;;;;;;;;;;;;;;15.62;100.00;101576.41;5048288;28;20339;-79
2022/09/07 05:27:58;;;;;;;;;;;;;;;16.22;100.00;101572.16;5047719;28;19932;-77
2022/09/07 05:30:25;;;;;;;;;;;;;;;16.09;100.00;101572.28;5046745;28;19921;-77
2022/09/07 05:32:51;;;;;;;;;;;;;;;16.03;100.00;101578.53;5046357;28;19925;-78
2022/09/07 05:35:19;;;;;;;;;;;;;;;16.21;100.00;101575.06;5045946;28;19921;-78
2022/09/07 05:37:50;;;;;;;;;;;;;;;16.39;100.00;101576.91;5042063;28;20011;-79
2022/09/07 05:40:17;;;;;;;;;;;;;;;16.59;100.00;101582.06;5048244;28;20331;-82
2022/09/07 05:42:43;;;;;;;;;;;;;;;16.57;100.00;101571.56;5047520;28;19931;-81
2022/09/07 05:45:10;;;;;;;;;;;;;;;16.63;100.00;101570.66;5046029;28;19920;-81
2022/09/07 05:47:38;;;;;;;;;;;;;;;17.02;100.00;101570.41;5046002;28;20345;-80
2022/09/07 05:50:05;;;;;;;;;;;;;;;17.23;100.00;101575.25;5046190;28;19967;-81
2022/09/07 05:52:31;;;;;;;;;;;;;;;17.38;100.00;101561.41;5041899;28;19932;-81
2022/09/07 05:54:59;;;;;;;;;;;;;;;17.54;100.00;101565.25;5046976;28;19921;-81
2022/09/07 05:57:26;;;;;;;;;;;;;;;17.52;100.00;101570.88;5043221;28;19921;-82
2022/09/07 05:59:52;;;;;;;;;;;;;;;17.68;100.00;101560.50;5046098;28;19968;-78
2022/09/07 06:02:19;;;;;;;;;;;;;;;17.77;100.00;101570.69;5045421;28;20281;-81
2022/09/07 06:04:46;;;;;;;;;;;;;;;17.78;100.00;101563.44;5044121;28;19921;-80
2022/09/07 06:07:13;;;;;;;;;;;;;;;18.07;100.00;101562.50;5046626;28;19925;-81
2022/09/07 06:09:40;;;;;;;;;;;;;;;18.30;100.00;101567.03;5043687;28;19930;-78
2022/09/07 06:12:08;;;;;;;;;;;;;;;18.42;100.00;101558.13;5045354;28;19921;-79
2022/09/07 06:14:34;;;;;;;;;;;;;;;18.58;100.00;101568.16;5045069;28;19932;-81
2022/09/07 06:17:01;;;;;;;;;;;;;;;18.66;100.00;101559.69;5048328;28;20269;-82
2022/09/07 06:19:27;;;;;;;;;;;;;;;18.94;100.00;101566.16;5043276;28;20368;-82
2022/09/07 06:21:54;;;;;;;;;;;;;;;19.02;100.00;101560.38;5044937;28;19928;-81
2022/09/07 06:24:20;;;;;;;;;;;;;;;19.19;100.00;101563.94;5041083;28;19935;-78
2022/09/07 06:26:47;;;;;;;;;;;;;;;19.37;100.00;101554.81;5043984;28;20369;-81
2022/09/07 06:29:15;;;;;;;;;;;;;;;19.24;100.00;101560.50;5047274;28;19921;-82
2022/09/07 06:31:42;;;;;;;;;;;;;;;19.96;100.00;101562.47;5044801;28;20257;-81
2022/09/07 06:34:08;;;;;;;;;;;;;;;19.72;100.00;101567.22;5045617;28;19920;-78
2022/09/07 06:36:35;;;;;;;;;;;;;;;20.13;100.00;101560.56;5042692;28;19925;-79
2022/09/07 06:39:01;;;;;;;;;;;;;;;20.05;100.00;101560.97;5044299;28;19921;-79
2022/09/07 06:41:29;;;;;;;;;;;;;;;20.02;100.00;101566.06;5046870;28;19921;-81
2022/09/07 06:43:56;;;;;;;;;;;;;;;20.28;100.00;101565.34;5046713;28;19970;-79
2022/09/07 06:46:24;;;;;;;;;;;;;;;20.67;100.00;101564.50;5044073;28;20285;-79
2022/09/07 06:48:52;;;;;;;;;;;;;;;20.84;100.00;101564.41;5043548;28;19932;-81
2022/09/07 06:51:19;;;;;;;;;;;;;;;20.97;100.00;101562.13;5048891;28;19932;-79
2022/09/07 06:53:47;;;;;;;;;;;;;;;21.36;100.00;101561.97;5051414;28;19921;-78
2022/09/07 06:56:15;;;;;;;;;;;;;;;21.90;100.00;101559.09;5044457;28;19920;-81
2022/09/07 06:58:41;;;;;;;;;;;;;;;21.81;100.00;101565.25;5046212;28;20050;-81
2022/09/07 07:01:09;;;;;;;;;;;;;;;22.13;100.00;101570.59;5046055;28;19932;-82
2022/09/07 07:03:37;;;;;;;;;;;;;;;22.19;100.00;101574.97;5046395;28;20429;-81
2022/09/07 07:06:04;;;;;;;;;;;;;;;21.99;100.00;101569.41;5037542;28;20276;-81
2022/09/07 07:08:31;;;;;;;;;;;;;;;22.30;100.00;101565.84;5045649;28;19924;-78
2022/09/07 07:11:01;;;;;;;;;;;;;;;22.40;100.00;101565.06;5044660;28;19921;-82
2022/09/07 07:13:27;;;;;;;;;;;;;;;23.05;100.00;101565.53;5034906;28;20289;-81
2022/09/07 07:16:01;;;;;;;;;;;;;;;22.88;100.00;101563.03;5043638;28;19924;-82
2022/09/07 07:18:27;;;;;;;;;;;;;;;22.84;100.00;101570.06;5046266;28;20023;-81
2022/09/07 07:20:55;;;;;;;;;;;;;;;23.11;100.00;101567.16;5037482;28;19931;-78
2022/09/07 07:23:22;;;;;;;;;;;;;;;23.47;100.00;101567.16;5045015;28;20426;-79
2022/09/07 07:25:48;;;;;;;;;;;;;;;23.43;100.00;101566.91;5044694;28;19921;-82
2022/09/07 07:28:15;;;;;;;;;;;;;;;23.12;100.00;101571.50;5046331;28;19920;-79
2022/09/07 07:30:42;;;;;;;;;;;;;;;23.50;100.00;101564.72;5046190;28;19924;-79
2022/09/07 07:33:08;;;;;;;;;;;;;;;23.93;100.00;101559.00;5037599;28;19932;-79
2022/09/07 07:35:35;;;;;;;;;;;;;;;23.81;100.00;101558.47;5044081;28;19921;-81
2022/09/07 07:38:03;;;;;;;;;;;;;;;24.00;100.00;101563.06;5045024;28;19921;-79
2022/09/07 07:40:31;;;;;;;;;;;;;;;23.65;92.85;101563.91;5043229;28;20296;-79
2022/09/07 07:42:57;;;;;;;;;;;;;;;23.95;90.63;101567.69;5046211;28;19930;-78
2022/09/07 07:45:24;;;;;;;;;;;;;;;23.87;88.53;101560.09;5044813;28;19932;-79
2022/09/07 07:47:51;;;;;;;;;;;;;;;24.01;91.03;101553.00;5043448;28;20372;-78
2022/09/07 07:50:17;;;;;;;;;;;;;;;23.82;97.40;101552.00;5043768;28;19920;-82
2022/09/07 07:52:44;;;;;;;;;;;;;;;24.37;97.03;101548.25;5038343;28;19932;-81
2022/09/07 07:55:12;;;;;;;;;;;;;;;24.53;86.23;101557.16;5045671;28;19921;-78
2022/09/07 07:57:38;;;;;;;;;;;;;;;24.67;89.83;101547.31;5043183;28;19920;-82
2022/09/07 08:00:05;;;;;;;;;;;;;;;24.98;82.08;101558.00;5042657;28;20355;-78
2022/09/07 08:02:33;;;;;;;;;;;;;;;24.99;71.79;101559.59;5043789;28;19947;-79
2022/09/07 08:05:00;;;;;;;;;;;;;;;25.06;74.60;101562.84;5040424;28;19996;-82
2022/09/07 08:07:26;;;;;;;;;;;;;;;24.94;70.21;101567.00;5045350;28;19921;-79
2022/09/07 08:09:53;;;;;;;;;;;;;;;25.14;70.46;101577.75;5043389;28;19921;-83
2022/09/07 08:12:21;;;;;;;;;;;;;;;24.29;79.98;101567.03;5042999;28;19921;-79
2022/09/07 08:14:48;;;;;;;;;;;;;;;24.43;78.54;101562.66;5043271;28;20364;-81
2022/09/07 08:17:15;;;;;;;;;;;;;;;24.63;68.47;101570.72;5043915;28;19925;-81
2022/09/07 08:19:42;;;;;;;;;;;;;;;25.28;70.11;101564.31;5041313;28;20020;-81
2022/09/07 08:22:09;;;;;;;;;;;;;;;26.10;73.54;101558.13;5045784;28;20337;-78
2022/09/07 08:24:36;;;;;;;;;;;;;;;25.93;65.13;101564.00;5041216;28;20311;-77
2022/09/07 08:27:02;;;;;;;;;;;;;;;25.93;64.33;101567.56;5041468;28;19986;-78
2022/09/07 08:29:30;;;;;;;;;;;;;;;26.24;63.88;101559.84;5046910;28;19990;-80
2022/09/07 08:31:57;;;;;;;;;;;;;;;26.62;72.74;101548.22;5045107;28;19921;-81
2022/09/07 08:34:23;;;;;;;;;;;;;;;26.59;66.47;101557.78;5047264;28;19920;-78
2022/09/07 08:36:50;;;;;;;;;;;;;;;26.79;58.21;101550.44;5043703;28;20002;-78
2022/09/07 08:39:16;;;;;;;;;;;;;;;26.47;63.72;101549.19;5043369;28;19979;-78
2022/09/07 08:41:56;;;;;;;;;;;;;;;26.71;55.91;101554.63;5042571;28;19986;-80
2022/09/07 08:44:24;;;;;;;;;;;;;;;27.45;56.75;101552.13;5043003;28;19982;-78
2022/09/07 08:46:55;;;;;;;;;;;;;;;27.84;48.12;101546.25;5037705;28;19982;-81
2022/09/07 08:49:26;;;;;;;;;;;;;;;28.19;56.45;101538.44;5042680;28;19956;-78
2022/09/07 08:51:55;;;;;;;;;;;;;;;27.45;52.70;101538.47;5040501;28;19921;-79
2022/09/07 08:54:21;;;;;;;;;;;;;;;27.79;50.93;101542.81;5049801;28;19987;-82
2022/09/07 08:56:50;;;;;;;;;;;;;;;27.69;48.08;101532.88;5049084;28;19979;-82
2022/09/07 08:59:18;;;;;;;;;;;;;;;28.92;52.30;101524.81;5047963;28;19929;-82
2022/09/07 09:01:45;;;;;;;;;;;;;;;27.52;50.59;101521.72;5046796;28;20320;-81
2022/09/07 09:04:14;;;;;;;;;;;;;;;27.75;47.84;101523.47;5048177;28;19979;-78
2022/09/07 09:06:47;;;;;;;;;;;;;;;28.76;48.88;101516.16;5043492;28;20007;-78
2022/09/07 09:09:20;;;;;;;;;;;;;;;27.82;52.29;101509.44;5044689;28;19933;-81
2022/09/07 09:11:52;;;;;;;;;;;;;;;28.57;48.07;101501.88;5044546;28;19921;-83
2022/09/07 09:14:26;;;;;;;;;;;;;;;29.25;48.95;101519.09;5048549;28;19927;-79
2022/09/07 09:16:55;;;;;;;;;;;;;;;28.76;45.63;101506.03;5047708;28;19921;-81
2022/09/07 09:19:40;;;;;;;;;;;;;;;29.04;44.94;101503.22;5046218;28;20004;-77
2022/09/07 09:22:12;;;;;;;;;;;;;;;29.39;47.67;101496.03;5046842;28;20406;-81
2022/09/07 09:24:42;;;;;;;;;;;;;;;29.34;44.79;101490.66;5044787;28;19925;-79
2022/09/07 09:27:09;;;;;;;;;;;;;;;29.57;46.43;101490.63;5044591;28;20320;-81
2022/09/07 09:29:35;;;;;;;;;;;;;;;29.02;42.07;101488.22;5050562;28;20422;-81
2022/09/07 09:32:17;;;;;;;;;;;;;;;28.77;44.35;101490.44;5044645;28;19982;-80
2022/09/07 09:34:59;;;;;;;;;;;;;;;29.34;43.04;101484.41;5039225;28;19983;-81
2022/09/07 09:37:33;;;;;;;;;;;;;;;29.69;38.83;101493.59;5049197;28;19921;-81
2022/09/07 09:39:59;;;;;;;;;;;;;;;29.47;40.68;101488.16;5050460;28;19921;-80
2022/09/07 09:42:30;;;;;;;;;;;;;;;28.07;41.88;101489.78;5040236;28;19954;-81
2022/09/07 09:45:01;;;;;;;;;;;;;;;28.69;48.22;101483.00;5046805;28;19925;-81
2022/09/07 09:47:31;;;;;;;;;;;;;;;29.62;40.05;101488.59;5045927;28;20361;-83
2022/09/07 09:50:01;;;;;;;;;;;;;;;29.02;44.79;101494.53;5037063;28;19925;-80
2022/09/07 09:52:31;;;;;;;;;;;;;;;29.59;40.02;101488.38;5047188;28;20349;-82
2022/09/07 09:54:58;;;;;;;;;;;;;;;28.99;40.32;101482.25;5046115;28;20334;-80
2022/09/07 09:57:39;;;;;;;;;;;;;;;29.59;41.04;101470.03;5040482;28;20391;-81
2022/09/07 10:00:06;;;;;;;;;;;;;;;29.99;40.70;101478.22;5046610;28;19921;-79
2022/09/07 10:02:33;;;;;;;;;;;;;;;28.95;37.78;101470.31;5044705;28;19925;-84
2022/09/07 10:05:04;;;;;;;;;;;;;;;29.49;42.52;101475.78;5042978;28;19921;-78
2022/09/07 10:07:31;;;;;;;;;;;;;;;29.99;40.43;101470.00;5047703;28;19929;-85
2022/09/07 10:09:58;;;;;;;;;;;;;;;30.61;36.25;101466.19;5045353;28;20003;-80
2022/09/07 10:12:27;;;;;;;;;;;;;;;29.83;37.59;101460.63;5046144;28;19962;-82
2022/09/07 10:14:55;;;;;;;;;;;;;;;29.67;41.55;101463.81;5045429;28;19924;-80
2022/09/07 10:17:25;;;;;;;;;;;;;;;29.86;39.11;101460.78;5044919;28;19921;-82
2022/09/07 10:19:53;;;;;;;;;;;;;;;30.36;36.71;101454.13;5045122;28;19929;-78
2022/09/07 10:22:30;;;;;;;;;;;;;;;30.06;35.96;101453.09;5043979;28;20336;-82
2022/09/07 10:24:57;;;;;;;;;;;;;;;30.09;36.10;101441.50;5045695;28;20011;-82
2022/09/07 10:27:30;;;;;;;;;;;;;;;29.93;36.13;101445.84;5043313;28;19921;-81
2022/09/07 10:29:58;;;;;;;;;;;;;;;30.94;35.50;101439.06;5045175;28;19921;-78
2022/09/07 10:32:28;;;;;;;;;;;;;;;30.98;35.21;101436.47;5041616;28;19991;-78
2022/09/07 10:35:03;;;;;;;;;;;;;;;30.96;35.19;101428.59;5043869;28;19924;-81
2022/09/07 10:37:41;;;;;;;;;;;;;;;30.26;35.82;101433.34;5045145;28;19928;-78
2022/09/07 10:40:16;;;;;;;;;;;;;;;30.32;36.60;101426.56;5044598;28;19931;-78
2022/09/07 10:42:48;;;;;;;;;;;;;;;31.58;34.04;101427.22;5044686;28;19920;-82
2022/09/07 10:45:19;;;;;;;;;;;;;;;31.94;32.87;101428.66;5044554;28;20375;-82
2022/09/07 10:47:51;;;;;;;;;;;;;;;30.67;35.05;101425.72;5044609;28;19943;-79
2022/09/07 10:50:24;;;;;;;;;;;;;;;31.27;33.85;101419.28;5044440;28;19987;-81
2022/09/07 10:52:57;;;;;;;;;;;;;;;30.58;39.45;101431.22;5042463;28;19921;-79
2022/09/07 10:55:30;;;;;;;;;;;;;;;30.51;34.87;101412.53;5043221;28;19928;-81
2022/09/07 10:58:02;;;;;;;;;;;;;;;29.45;38.72;101420.09;5049238;28;19925;-81
2022/09/07 11:00:33;;;;;;;;;;;;;;;31.48;37.61;101411.16;5038175;28;20016;-79
2022/09/07 11:03:14;;;;;;;;;;;;;;;32.08;36.41;101406.44;5045528;28;20003;-81
2022/09/07 11:05:47;;;;;;;;;;;;;;;31.73;32.60;101408.56;5045328;28;19924;-81
2022/09/07 11:08:21;;;;;;;;;;;;;;;31.39;34.10;101410.38;5035381;28;19921;-78
2022/09/07 11:10:50;;;;;;;;;;;;;;;31.15;32.98;101405.47;5035183;28;19920;-81
2022/09/07 11:13:21;;;;;;;;;;;;;;;31.43;34.63;101400.34;5039806;28;19932;-81
2022/09/07 11:15:50;;;;;;;;;;;;;;;31.63;34.79;101396.84;5044866;28;19921;-78
2022/09/07 11:18:20;;;;;;;;;;;;;;;32.47;35.33;101390.56;5043196;28;20339;-81
2022/09/07 11:20:53;;;;;;;;;;;;;;;32.46;31.17;101392.53;5044434;28;20346;-81
2022/09/07 11:23:23;;;;;;;;;;;;;;;32.07;30.61;101394.59;5044691;28;19929;-81
2022/09/07 11:25:54;;;;;;;;;;;;;;;32.64;32.80;101390.41;5044532;28;19921;-81
2022/09/07 11:28:22;;;;;;;;;;;;;;;31.75;32.66;101387.09;5045905;28;19921;-81
2022/09/07 11:30:51;;;;;;;;;;;;;;;32.25;32.97;101378.78;5045968;28;19921;-79
2022/09/07 11:33:20;;;;;;;;;;;;;;;31.97;31.14;101377.75;5037389;28;19982;-79
2022/09/07 11:35:48;;;;;;;;;;;;;;;31.23;34.21;101380.72;5043474;28;19928;-79
2022/09/07 11:38:21;;;;;;;;;;;;;;;32.71;33.82;101376.09;5045749;28;19982;-81
2022/09/07 11:40:57;;;;;;;;;;;;;;;32.38;35.37;101371.41;5044932;28;20040;-78
2022/09/07 11:43:27;;;;;;;;;;;;;;;32.25;35.72;101365.03;5044378;28;19924;-78
2022/09/07 11:45:55;;;;;;;;;;;;;;;33.18;32.08;101370.22;5042990;28;19974;-79
2022/09/07 11:48:24;;;;;;;;;;;;;;;33.70;33.70;101369.50;5043940;28;20349;-78
2022/09/07 11:50:53;;;;;;;;;;;;;;;33.22;29.23;101365.63;5043844;28;19925;-81
2022/09/07 11:53:22;;;;;;;;;;;;;;;32.52;28.42;101362.88;5041375;28;19986;-81
2022/09/07 11:55:51;;;;;;;;;;;;;;;32.71;28.59;101365.91;5044096;28;20420;-81
2022/09/07 11:58:36;;;;;;;;;;;;;;;32.55;30.29;101351.19;5034031;28;20364;-81
2022/09/07 12:01:10;;;;;;;;;;;;;;;32.51;29.21;101359.34;5033694;28;19985;-78
2022/09/07 12:03:46;;;;;;;;;;;;;;;32.75;28.69;101364.09;5045336;28;20387;-81
2022/09/07 12:06:29;;;;;;;;;;;;;;;32.63;29.44;101357.75;5036585;28;19979;-79
2022/09/07 12:09:02;;;;;;;;;;;;;;;29.72;33.47;101360.78;5042462;28;20368;-81
2022/09/07 12:11:34;;;;;;;;;;;;;;;28.98;35.18;101359.53;5045489;28;19990;-82
2022/09/07 12:14:12;;;;;;;;;;;;;;;30.38;34.21;101353.25;5045127;28;20269;-81
2022/09/07 12:16:55;;;;;;;;;;;;;;;31.34;32.08;101340.03;5044871;28;19986;-81
2022/09/07 12:19:23;;;;;;;;;;;;;;;31.09;39.14;101338.19;5045033;28;19921;-82
2022/09/07 12:21:55;;;;;;;;;;;;;;;29.86;36.08;101336.78;5034009;28;19921;-82
2022/09/07 12:24:37;;;;;;;;;;;;;;;30.20;35.05;101340.63;5039005;28;19925;-78
2022/09/07 12:27:04;;;;;;;;;;;;;;;31.97;35.97;101331.06;5041410;28;19921;-80
2022/09/07 12:29:32;;;;;;;;;;;;;;;32.50;35.00;101330.25;5047468;28;19929;-82
2022/09/07 12:31:59;;;;;;;;;;;;;;;33.14;30.96;101328.84;5049779;28;19921;-79
2022/09/07 12:34:47;;;;;;;;;;;;;;;33.27;30.11;101330.41;5045011;28;20369;-81
2022/09/07 12:37:32;;;;;;;;;;;;;;;32.28;31.41;101325.91;5043930;28;19931;-78
2022/09/07 12:40:13;;;;;;;;;;;;;;;32.38;31.76;101327.44;5051840;28;19921;-80
2022/09/07 12:42:39;;;;;;;;;;;;;;;32.45;30.91;101327.69;5045576;28;19921;-80
2022/09/07 12:45:24;;;;;;;;;;;;;;;32.67;29.89;101334.72;5054098;28;19921;-83